(°C)
17°
17°
17°
16°
16°
16°
15°
(°C)
16°
16°
15°
15°
14°
13°
13°
სდ
დას.
დჩდ
ჩჩდ
ჩჩდ
ჩჩდ
ჩრ.
(კმ/სთ)
8-17
6-16
8-18
10-21
11-23
11-23
10-21
(მმ)
0
0
0
0
0
0
0
(%)
12
15
15
14
13
9
5

მზის სიმაღლე

/ -21.7°
sun-icon
UV 4
05:09
20:07
ახალგაზრდა მთვარე (338°)
04:07
18:33

METAR Barnstable (KHYA)-თვის

დრო პირობები ტემპერატურა/
ნამი
ქარი ხილვადობა ამინდი ღრუბლები წნევა ცვლილება დაუმუშავებელი
VFR 16.1°C / 15°C 230º 4kt >10km - Clear - KHYA 290203Z AUTO 23004KT 8SM CLR 16/15 A2978 RMK AO2 T01610150
IFR 16.1°C / 15°C 230º 4kt >10km - Broken Clouds 600ft 1008 - KHYA 290156Z 23004KT 8SM BKN006 16/15 A2978 RMK AO2 SLP083 T01610150
IFR 17.2°C / 16.1°C 240º 6kt >10km - Broken Clouds 600ft 1007 - KHYA 290056Z 24006KT 8SM BKN006 17/16 A2975 RMK AO2 SLP076 T01720161
IFR 17.8°C / 16.1°C 240º 8kt >10km - Overcast 600ft 1007 - KHYA 282356Z 24008KT 9SM OVC006 18/16 A2974 RMK AO2 SLP071 T01780161 10194 20172 53011
IFR 17.2°C / 15.6°C 230º 10kt >10km - Broken Clouds 500ft - KHYA 282312Z 23010KT 10SM BKN005 17/16 A2971 RMK AO2 T01720156
VFR 17.8°C / 15.6°C 210º 10kt >10km - Few Clouds 600ft 1005 - KHYA 282256Z 21010KT 10SM FEW006 18/16 A2970 RMK AO2 SLP057 T01780156
VFR 17.8°C / 15.6°C 220º 11kt >10km - Few Clouds 700ft - KHYA 282236Z 22011KT 10SM FEW007 18/16 A2970 RMK AO2 T01780156
VFR 18.3°C / 16.1°C 220º 10kt >10km - Few Clouds 1100ft - KHYA 282223Z 22010KT 10SM FEW011 18/16 A2970 RMK AO2 T01830161
MVFR 18.9°C / 16.1°C 220º 13kt Gust 19kt >10km - Few Clouds 500ft
Overcast 1300ft
1005 - KHYA 282156Z 22013G19KT 10SM FEW005 OVC013 19/16 A2970 RMK AO2 SLP056 T01890161
MVFR 18.9°C / 16.7°C 210º 11kt >10km - Scattered Clouds 500ft
Overcast 1300ft
- KHYA 282149Z 21011KT 8SM SCT005 OVC013 19/17 A2969 RMK AO2 T01890167
IFR 18.3°C / 16.7°C 220º variable 003º to 009º 12kt >10km - Broken Clouds 500ft
Overcast 1400ft
- KHYA 282108Z 22012KT 8SM BKN005 OVC014 18/17 A2971 RMK AO2 CIG 003V009 T01830167
LIFR 17.8°C / 16.1°C 230º variable 003º to 006º 13kt Gust 18kt 8000m Mist Vertical Visibility of 0ft. 1006 - KHYA 282056Z 23013G18KT 5SM BR OVC003 18/16 A2970 RMK AO2 CIG 003V006 SLP060 T01780161 53001
IFR 18.3°C / 16.7°C 220º 11kt 4800m Mist Vertical Visibility of 0ft. - KHYA 282003Z 22011KT 3SM BR OVC005 18/17 A2970 RMK AO2 T01830167
IFR 18.3°C / 16.1°C 220º 12kt 3200m Mist Vertical Visibility of 0ft. 1005 - KHYA 281956Z 22012KT 2SM BR OVC005 18/16 A2970 RMK AO2 SLP058 T01830161
IFR 18.9°C / 17.2°C 200º 12kt 3200m Mist Vertical Visibility of 0ft. 1005 - KHYA 281856Z AUTO 20012KT 2SM BR OVC005 19/17 A2969 RMK AO2 SLP055 T01890172
IFR 19.4°C / 17.2°C 220º 15kt Gust 20kt 3200m Mist Vertical Visibility of 0ft. - KHYA 281824Z 22015G20KT 2SM BR OVC005 19/17 A2970 RMK AO2 T01940172
LIFR 18.3°C / 17.2°C 210º 11kt Gust 17kt 3200m Mist Vertical Visibility of 0ft. 1005 - KHYA 281756Z 21011G17KT 2SM BR OVC004 18/17 A2970 RMK AO2 SLP059 60000 T01830172 10189 20178 58009
LIFR 17.8°C / 17.2°C 200º 12kt 3200m Mist Vertical Visibility of 0ft. 1006 - KHYA 281656Z 20012KT 2SM BR OVC003 18/17 A2972 RMK AO2 SLP063 T01780172
LIFR 18.3°C / 17.2°C 220º 12kt Gust 18kt 1600m Mist Vertical Visibility of 0ft. - KHYA 281622Z 22012G18KT 1SM BR OVC002 18/17 A2972 RMK AO2 T01830172
LIFR 17.8°C / 17.2°C 210º 15kt Gust 22kt 1200m Mist Vertical Visibility of 0ft. 1006 - KHYA 281556Z 21015G22KT 3/4SM BR OVC002 18/17 A2972 RMK AO2 SLP064 T01780172
LIFR 17.8°C / 16.7°C 210º 14kt Gust 19kt 1200m Mist 0.13mm precipitation Overcast 300ft 1006 - KHYA 281456Z 21014G19KT 3/4SM BR OVC003 18/17 A2973 RMK AO2 RAB16E27 SLP067 P0000 60000 T01780167 58006
LIFR 17.8°C / 17.2°C 210º 11kt 800m Fog Vertical Visibility of 0ft. 1007 - KHYA 281356Z 21011KT 1/2SM FG OVC003 18/17 A2974 RMK AO2 SLP070 T01780172
LIFR 17.8°C / 17.2°C 210º 15kt 800m Fog Vertical Visibility of 0ft. 1007 - KHYA 281256Z 21015KT 1/2SM FG OVC002 18/17 A2975 RMK AO2 SLP074 T01780172
LIFR 17.8°C / 16.7°C 210º 12kt Gust 20kt 800m Fog 0.13mm precipitation Overcast 100ft 1007 - KHYA 281156Z 21012G20KT 1/2SM FG OVC001 18/17 A2974 RMK AO2 RAB21E32 SLP073 P0000 60027 70030 T01780167 10178 20167 50002

VFR

16.1°C / 15°C

[მეტი]
ქარი 230º 4kt
ხილვადობა >10km
ამინდი -
ღრუბლები Clear
წნევა
ცვლილება -
დაუმუშავებელი KHYA 290203Z AUTO 23004KT 8SM CLR 16/15 A2978 RMK AO2 T01610150

IFR

16.1°C / 15°C

[მეტი]
ქარი 230º 4kt
ხილვადობა >10km
ამინდი -
ღრუბლები Broken Clouds 600ft
წნევა 1008
ცვლილება -
დაუმუშავებელი KHYA 290156Z 23004KT 8SM BKN006 16/15 A2978 RMK AO2 SLP083 T01610150

IFR

17.2°C / 16.1°C

[მეტი]
ქარი 240º 6kt
ხილვადობა >10km
ამინდი -
ღრუბლები Broken Clouds 600ft
წნევა 1007
ცვლილება -
დაუმუშავებელი KHYA 290056Z 24006KT 8SM BKN006 17/16 A2975 RMK AO2 SLP076 T01720161

IFR

17.8°C / 16.1°C

[მეტი]
ქარი 240º 8kt
ხილვადობა >10km
ამინდი -
ღრუბლები Overcast 600ft
წნევა 1007
ცვლილება -
დაუმუშავებელი KHYA 282356Z 24008KT 9SM OVC006 18/16 A2974 RMK AO2 SLP071 T01780161 10194 20172 53011

IFR

17.2°C / 15.6°C

[მეტი]
ქარი 230º 10kt
ხილვადობა >10km
ამინდი -
ღრუბლები Broken Clouds 500ft
წნევა
ცვლილება -
დაუმუშავებელი KHYA 282312Z 23010KT 10SM BKN005 17/16 A2971 RMK AO2 T01720156

VFR

17.8°C / 15.6°C

[მეტი]
ქარი 210º 10kt
ხილვადობა >10km
ამინდი -
ღრუბლები Few Clouds 600ft
წნევა 1005
ცვლილება -
დაუმუშავებელი KHYA 282256Z 21010KT 10SM FEW006 18/16 A2970 RMK AO2 SLP057 T01780156

VFR

17.8°C / 15.6°C

[მეტი]
ქარი 220º 11kt
ხილვადობა >10km
ამინდი -
ღრუბლები Few Clouds 700ft
წნევა
ცვლილება -
დაუმუშავებელი KHYA 282236Z 22011KT 10SM FEW007 18/16 A2970 RMK AO2 T01780156

VFR

18.3°C / 16.1°C

[მეტი]
ქარი 220º 10kt
ხილვადობა >10km
ამინდი -
ღრუბლები Few Clouds 1100ft
წნევა
ცვლილება -
დაუმუშავებელი KHYA 282223Z 22010KT 10SM FEW011 18/16 A2970 RMK AO2 T01830161

MVFR

18.9°C / 16.1°C

[მეტი]
ქარი 220º 13kt Gust 19kt
ხილვადობა >10km
ამინდი -
ღრუბლები Few Clouds 500ft
Overcast 1300ft
წნევა 1005
ცვლილება -
დაუმუშავებელი KHYA 282156Z 22013G19KT 10SM FEW005 OVC013 19/16 A2970 RMK AO2 SLP056 T01890161

MVFR

18.9°C / 16.7°C

[მეტი]
ქარი 210º 11kt
ხილვადობა >10km
ამინდი -
ღრუბლები Scattered Clouds 500ft
Overcast 1300ft
წნევა
ცვლილება -
დაუმუშავებელი KHYA 282149Z 21011KT 8SM SCT005 OVC013 19/17 A2969 RMK AO2 T01890167

IFR

18.3°C / 16.7°C

[მეტი]
ქარი 220º variable 003º to 009º 12kt
ხილვადობა >10km
ამინდი -
ღრუბლები Broken Clouds 500ft
Overcast 1400ft
წნევა
ცვლილება -
დაუმუშავებელი KHYA 282108Z 22012KT 8SM BKN005 OVC014 18/17 A2971 RMK AO2 CIG 003V009 T01830167

LIFR

17.8°C / 16.1°C

[მეტი]
ქარი 230º variable 003º to 006º 13kt Gust 18kt
ხილვადობა 8000m
ამინდი Mist
ღრუბლები Vertical Visibility of 0ft.
წნევა 1006
ცვლილება -
დაუმუშავებელი KHYA 282056Z 23013G18KT 5SM BR OVC003 18/16 A2970 RMK AO2 CIG 003V006 SLP060 T01780161 53001

IFR

18.3°C / 16.7°C

[მეტი]
ქარი 220º 11kt
ხილვადობა 4800m
ამინდი Mist
ღრუბლები Vertical Visibility of 0ft.
წნევა
ცვლილება -
დაუმუშავებელი KHYA 282003Z 22011KT 3SM BR OVC005 18/17 A2970 RMK AO2 T01830167

IFR

18.3°C / 16.1°C

[მეტი]
ქარი 220º 12kt
ხილვადობა 3200m
ამინდი Mist
ღრუბლები Vertical Visibility of 0ft.
წნევა 1005
ცვლილება -
დაუმუშავებელი KHYA 281956Z 22012KT 2SM BR OVC005 18/16 A2970 RMK AO2 SLP058 T01830161

IFR

18.9°C / 17.2°C

[მეტი]
ქარი 200º 12kt
ხილვადობა 3200m
ამინდი Mist
ღრუბლები Vertical Visibility of 0ft.
წნევა 1005
ცვლილება -
დაუმუშავებელი KHYA 281856Z AUTO 20012KT 2SM BR OVC005 19/17 A2969 RMK AO2 SLP055 T01890172

IFR

19.4°C / 17.2°C

[მეტი]
ქარი 220º 15kt Gust 20kt
ხილვადობა 3200m
ამინდი Mist
ღრუბლები Vertical Visibility of 0ft.
წნევა
ცვლილება -
დაუმუშავებელი KHYA 281824Z 22015G20KT 2SM BR OVC005 19/17 A2970 RMK AO2 T01940172

LIFR

18.3°C / 17.2°C

[მეტი]
ქარი 210º 11kt Gust 17kt
ხილვადობა 3200m
ამინდი Mist
ღრუბლები Vertical Visibility of 0ft.
წნევა 1005
ცვლილება -
დაუმუშავებელი KHYA 281756Z 21011G17KT 2SM BR OVC004 18/17 A2970 RMK AO2 SLP059 60000 T01830172 10189 20178 58009

LIFR

17.8°C / 17.2°C

[მეტი]
ქარი 200º 12kt
ხილვადობა 3200m
ამინდი Mist
ღრუბლები Vertical Visibility of 0ft.
წნევა 1006
ცვლილება -
დაუმუშავებელი KHYA 281656Z 20012KT 2SM BR OVC003 18/17 A2972 RMK AO2 SLP063 T01780172

LIFR

18.3°C / 17.2°C

[მეტი]
ქარი 220º 12kt Gust 18kt
ხილვადობა 1600m
ამინდი Mist
ღრუბლები Vertical Visibility of 0ft.
წნევა
ცვლილება -
დაუმუშავებელი KHYA 281622Z 22012G18KT 1SM BR OVC002 18/17 A2972 RMK AO2 T01830172

LIFR

17.8°C / 17.2°C

[მეტი]
ქარი 210º 15kt Gust 22kt
ხილვადობა 1200m
ამინდი Mist
ღრუბლები Vertical Visibility of 0ft.
წნევა 1006
ცვლილება -
დაუმუშავებელი KHYA 281556Z 21015G22KT 3/4SM BR OVC002 18/17 A2972 RMK AO2 SLP064 T01780172

LIFR

17.8°C / 16.7°C

[მეტი]
ქარი 210º 14kt Gust 19kt
ხილვადობა 1200m
ამინდი Mist 0.13mm precipitation
ღრუბლები Overcast 300ft
წნევა 1006
ცვლილება -
დაუმუშავებელი KHYA 281456Z 21014G19KT 3/4SM BR OVC003 18/17 A2973 RMK AO2 RAB16E27 SLP067 P0000 60000 T01780167 58006

LIFR

17.8°C / 17.2°C

[მეტი]
ქარი 210º 11kt
ხილვადობა 800m
ამინდი Fog
ღრუბლები Vertical Visibility of 0ft.
წნევა 1007
ცვლილება -
დაუმუშავებელი KHYA 281356Z 21011KT 1/2SM FG OVC003 18/17 A2974 RMK AO2 SLP070 T01780172

LIFR

17.8°C / 17.2°C

[მეტი]
ქარი 210º 15kt
ხილვადობა 800m
ამინდი Fog
ღრუბლები Vertical Visibility of 0ft.
წნევა 1007
ცვლილება -
დაუმუშავებელი KHYA 281256Z 21015KT 1/2SM FG OVC002 18/17 A2975 RMK AO2 SLP074 T01780172

LIFR

17.8°C / 16.7°C

[მეტი]
ქარი 210º 12kt Gust 20kt
ხილვადობა 800m
ამინდი Fog 0.13mm precipitation
ღრუბლები Overcast 100ft
წნევა 1007
ცვლილება -
დაუმუშავებელი KHYA 281156Z 21012G20KT 1/2SM FG OVC001 18/17 A2974 RMK AO2 RAB21E32 SLP073 P0000 60027 70030 T01780167 10178 20167 50002

TAF Barnstable (KHYA)-თვის

From till


From till Wind 220º 8kt. Visibility 1600m. Mist . Overcast 200ft.
From till Wind 230º 6kt. Visibility 804.670m. Fog . Overcast 300ft.
From till Wind 340º 10kt. Visibility 10km or more. Broken Clouds 1000ft.
From till Wind 360º 8kt. Visibility 10km or more. Scattered Clouds 2000ft.
From till Wind 110º 3kt. Visibility 10km or more. Few Clouds 12000ft.

დაუმუშავებელი: KHYA 282320Z 2900/2924 22008KT 1SM BR OVC002 FM290100 23006KT 1/2SM FG OVC003 FM290500 34010KT P6SM BKN010 FM290900 36008KT P6SM SCT020 FM291800 11003KT P6SM FEW120

რადარის და ნალექების მაჩვენებელი Barnstable -თვის

გაწურეთ
Მსუბუქი
ზომიერი
Მძიმე
Ძალიან მძიმე
სეტყვა

მდებარეობის მარკერი მოთავსებულია Barnstable -ზე. ეს ანიმაცია აჩვენებს ნალექების სარადარო მონაცემებს როგორც ბოლო საათის განმავლობაში, ასევე 1h პროგნოზს. წვიმა ან თოვლის მსუბუქი ვარდნა შეიძლება უჩინარი იყოს რადარისთვის. ნალექების ინტენსივობა არის კოდირებული ფერით, დაწყებული ღია ლურჯიდან ნარინჯისფერამდე.

მიმდინარე სატელიტური სურათები Barnstable-თვის, აშშ

ლოკაციის მარკერი დაყენებყლია Barnstableზე. [მეტი]

რეალურ დროში სატელიტური სურათი აერთიანებს ხილულ სინათლეს დღისით ღამის განმავლობაში ინფრაწითელ გამოსხივებასთან ერთად. ღამით, სურათი არ არის მუქი, რადგან ინფრაწითელ გამოსხივებას შეუძლია ტემპერატურის განსხვავებების დადგენა. სამწუხაროდ, დაბალი ღრუბლები და ნისლი ძნელია განასხვავონ მიწის ტემპერატურისგან და, შესაბამისად, ისინი შეიძლება თითქმის არ ჩანდეს ღამით. Meteosat სატელიტური გამოსახულება ევროპისთვის ახლდება რეალურ დროში ყოველ 5 წუთში. GOES-16/GOES-17 (ჩრდილოეთი და სამხრეთ ამერიკა) და ჰიმავარი (აზია) გამოსახულებები ახლდება ყოველ 10 წუთში.

თავში დაბრუნება